createdAt,value
2023-01-08T00:02:14.045Z,1.30
2023-01-08T00:04:40.701Z,1.30
2023-01-08T00:07:07.360Z,1.30
2023-01-08T00:09:33.950Z,1.30
2023-01-08T00:12:00.534Z,1.30
2023-01-08T00:14:27.257Z,1.40
2023-01-08T00:16:53.908Z,1.30
2023-01-08T00:19:20.638Z,1.10
2023-01-08T00:21:47.245Z,0.90
2023-01-08T00:24:13.859Z,0.70
2023-01-08T00:26:40.484Z,0.70
2023-01-08T00:29:07.180Z,0.80
2023-01-08T00:31:33.796Z,0.70
2023-01-08T00:34:00.446Z,0.60
2023-01-08T00:36:27.053Z,0.40
2023-01-08T00:38:53.641Z,0.30
2023-01-08T00:41:20.341Z,0.30
2023-01-08T00:43:46.973Z,0.30
2023-01-08T00:46:13.628Z,0.20
2023-01-08T00:48:40.297Z,0.20
2023-01-08T00:51:08.219Z,0.30
2023-01-08T00:53:35.317Z,0.40
2023-01-08T00:56:06.361Z,0.50
2023-01-08T00:58:33.166Z,0.50
2023-01-08T01:00:59.970Z,0.40
2023-01-08T01:03:26.652Z,0.60
2023-01-08T01:06:02.997Z,0.90
2023-01-08T01:08:29.721Z,0.70
2023-01-08T01:10:56.328Z,0.40
2023-01-08T01:13:23.178Z,0.20
2023-01-08T01:15:59.605Z,0.10
2023-01-08T01:18:26.571Z,0.00
2023-01-08T01:20:53.210Z,-0.10
2023-01-08T01:23:19.935Z,0.00
2023-01-08T01:25:46.581Z,0.10
2023-01-08T01:28:13.255Z,0.40
2023-01-08T01:30:42.055Z,0.40
2023-01-08T01:33:08.742Z,0.30
2023-01-08T01:35:35.355Z,0.40
2023-01-08T01:38:01.977Z,0.50
2023-01-08T01:40:28.566Z,0.70
2023-01-08T01:42:55.165Z,0.60
2023-01-08T01:45:23.132Z,0.70
2023-01-08T01:47:53.846Z,0.70
2023-01-08T01:50:22.966Z,0.70
2023-01-08T01:52:53.145Z,0.80
2023-01-08T01:55:19.857Z,0.50
2023-01-08T01:57:50.586Z,0.10
2023-01-08T02:00:17.289Z,-0.10
2023-01-08T02:02:43.907Z,-0.20
2023-01-08T02:05:10.531Z,-0.20
2023-01-08T02:07:41.950Z,0.10
2023-01-08T02:10:26.381Z,0.40
2023-01-08T02:13:04.616Z,0.40
2023-01-08T02:15:45.040Z,0.40
2023-01-08T02:18:18.267Z,0.30
2023-01-08T02:20:56.355Z,0.20
2023-01-08T02:23:38.341Z,0.00
2023-01-08T02:26:23.826Z,0.10
2023-01-08T02:28:56.145Z,0.10
2023-01-08T02:31:23.839Z,0.20
2023-01-08T02:33:50.520Z,0.20
2023-01-08T02:36:46.719Z,0.00
2023-01-08T02:39:13.281Z,0.10
2023-01-08T02:41:42.620Z,0.20
2023-01-08T02:44:10.461Z,-0.40
2023-01-08T02:46:38.134Z,-0.60
2023-01-08T02:49:07.260Z,-0.70
2023-01-08T02:51:35.424Z,-0.70
2023-01-08T02:54:04.036Z,-0.60
2023-01-08T02:56:33.837Z,-0.20
2023-01-08T02:59:00.892Z,0.20
2023-01-08T03:01:28.721Z,0.10
2023-01-08T03:04:00.303Z,0.10
2023-01-08T03:06:28.819Z,0.10
2023-01-08T03:08:55.496Z,0.10
2023-01-08T03:11:23.138Z,0.20
2023-01-08T03:13:49.733Z,0.20
2023-01-08T03:16:17.762Z,-0.30
2023-01-08T03:18:47.070Z,-0.70
2023-01-08T03:21:13.901Z,-1.00
2023-01-08T03:23:41.651Z,-1.00
2023-01-08T03:26:09.459Z,-0.80
2023-01-08T03:28:44.133Z,-0.40
2023-01-08T03:31:11.429Z,-0.30
2023-01-08T03:33:38.236Z,-0.10
2023-01-08T03:36:06.415Z,-0.30
2023-01-08T03:38:36.607Z,-0.30
2023-01-08T03:41:14.580Z,-0.10
2023-01-08T03:43:41.194Z,0.00
2023-01-08T03:46:10.922Z,0.10
2023-01-08T03:48:38.481Z,0.20
2023-01-08T03:51:08.304Z,0.20
2023-01-08T03:53:34.931Z,-0.10
2023-01-08T03:56:01.563Z,0.00
2023-01-08T03:58:28.169Z,0.30
2023-01-08T04:00:55.412Z,0.10
2023-01-08T04:03:24.567Z,-0.10
2023-01-08T04:05:51.197Z,-0.40
2023-01-08T04:08:17.884Z,-0.40
2023-01-08T04:10:44.477Z,-0.40
2023-01-08T04:13:11.102Z,-0.10
2023-01-08T04:15:37.744Z,0.00
2023-01-08T04:18:04.395Z,-0.10
2023-01-08T04:20:30.969Z,0.00
2023-01-08T04:22:57.576Z,0.30
2023-01-08T04:25:24.188Z,0.40
2023-01-08T04:27:50.879Z,0.60
2023-01-08T04:30:17.464Z,0.50
2023-01-08T04:32:44.068Z,0.20
2023-01-08T04:35:10.707Z,0.10
2023-01-08T04:37:37.412Z,0.00
2023-01-08T04:40:04.200Z,0.20
2023-01-08T04:42:30.787Z,0.40
2023-01-08T04:44:57.392Z,0.40
2023-01-08T04:47:24.031Z,0.20
2023-01-08T04:49:50.635Z,0.30
2023-01-08T04:52:17.236Z,-0.10
2023-01-08T04:54:43.834Z,0.10
2023-01-08T04:57:10.617Z,0.30
2023-01-08T04:59:37.223Z,0.30
2023-01-08T05:02:04.022Z,0.30
2023-01-08T05:04:30.762Z,0.30
2023-01-08T05:06:57.382Z,0.40
2023-01-08T05:09:23.963Z,0.00
2023-01-08T05:11:50.607Z,0.10
2023-01-08T05:14:17.203Z,0.20
2023-01-08T05:16:43.825Z,0.30
2023-01-08T05:19:10.538Z,0.30
2023-01-08T05:21:37.371Z,0.10
2023-01-08T05:24:04.105Z,0.20
2023-01-08T05:26:30.679Z,0.30
2023-01-08T05:28:57.748Z,0.50
2023-01-08T05:31:24.456Z,0.50
2023-01-08T05:33:51.492Z,0.50
2023-01-08T05:36:18.335Z,0.50
2023-01-08T05:38:44.943Z,0.40
2023-01-08T05:41:11.529Z,0.50
2023-01-08T05:43:38.171Z,0.40
2023-01-08T05:46:05.271Z,0.40
2023-01-08T05:48:32.988Z,0.50
2023-01-08T05:50:59.596Z,0.50
2023-01-08T05:53:26.216Z,0.40
2023-01-08T05:55:57.690Z,0.00
2023-01-08T05:58:24.290Z,-0.20
2023-01-08T06:00:50.885Z,0.00
2023-01-08T06:03:19.878Z,0.10
2023-01-08T06:05:46.470Z,0.20
2023-01-08T06:08:13.066Z,0.30
2023-01-08T06:10:39.633Z,0.40
2023-01-08T06:13:07.120Z,0.30
2023-01-08T06:15:33.763Z,0.30
2023-01-08T06:18:04.051Z,0.60
2023-01-08T06:20:30.647Z,0.80
2023-01-08T06:22:57.280Z,0.70
2023-01-08T06:25:24.687Z,0.40
2023-01-08T06:27:52.123Z,0.50
2023-01-08T06:30:19.074Z,0.60
2023-01-08T06:32:45.710Z,0.70
2023-01-08T06:35:12.293Z,0.70
2023-01-08T06:37:38.879Z,0.60
2023-01-08T06:40:05.777Z,0.30
2023-01-08T06:42:32.369Z,-0.10
2023-01-08T06:44:58.948Z,-0.20
2023-01-08T06:47:25.556Z,-0.30
2023-01-08T06:49:52.148Z,-0.40
2023-01-08T06:52:18.743Z,0.10
2023-01-08T06:54:45.340Z,0.30
2023-01-08T06:57:11.958Z,0.40
2023-01-08T06:59:38.549Z,0.70
2023-01-08T07:02:13.931Z,0.60
2023-01-08T07:04:44.557Z,0.10
2023-01-08T07:07:13.207Z,0.20
2023-01-08T07:09:40.629Z,0.50
2023-01-08T07:12:09.952Z,0.60
2023-01-08T07:14:36.595Z,0.70
2023-01-08T07:17:03.237Z,0.50
2023-01-08T07:19:31.195Z,0.40
2023-01-08T07:21:57.768Z,0.20
2023-01-08T07:24:24.396Z,-0.10
2023-01-08T07:26:51.017Z,0.00
2023-01-08T07:29:17.613Z,0.20
2023-01-08T07:31:44.429Z,0.30
2023-01-08T07:34:11.372Z,0.50
2023-01-08T07:36:38.288Z,0.70
2023-01-08T07:39:05.110Z,0.50
2023-01-08T07:41:31.677Z,0.30
2023-01-08T07:43:58.275Z,0.30
2023-01-08T07:46:24.947Z,0.50
2023-01-08T07:48:51.634Z,0.60
2023-01-08T07:51:18.359Z,0.60
2023-01-08T07:53:44.996Z,0.50
2023-01-08T07:56:11.927Z,0.60
2023-01-08T07:58:38.797Z,0.80
2023-01-08T08:01:08.391Z,1.10
2023-01-08T08:03:35.103Z,1.20
2023-01-08T08:06:01.776Z,1.10
2023-01-08T08:08:28.509Z,1.00
2023-01-08T08:10:55.225Z,1.10
2023-01-08T08:13:21.851Z,1.40
2023-01-08T08:15:48.514Z,1.50
2023-01-08T08:18:15.143Z,1.60
2023-01-08T08:20:41.785Z,1.80
2023-01-08T08:23:10.266Z,1.70
2023-01-08T08:25:37.202Z,1.70
2023-01-08T08:28:04.591Z,1.70
2023-01-08T08:30:32.537Z,1.90
2023-01-08T08:33:02.787Z,1.90
2023-01-08T08:35:30.757Z,2.00
2023-01-08T08:37:57.908Z,2.00
2023-01-08T08:40:25.949Z,2.30
2023-01-08T08:42:57.297Z,2.40
2023-01-08T08:45:24.591Z,2.60
2023-01-08T08:47:52.299Z,2.70
2023-01-08T08:50:19.892Z,2.80
2023-01-08T08:52:52.869Z,3.00
2023-01-08T08:55:20.542Z,3.10
2023-01-08T08:57:47.833Z,3.30
2023-01-08T09:00:15.462Z,3.20
2023-01-08T09:02:42.901Z,3.20
2023-01-08T09:05:10.601Z,3.20
2023-01-08T09:07:40.173Z,3.40
2023-01-08T09:10:07.968Z,3.30
2023-01-08T09:12:40.573Z,3.40
2023-01-08T09:15:10.290Z,3.40
2023-01-08T09:17:37.208Z,3.50
2023-01-08T09:20:05.307Z,3.70
2023-01-08T09:22:32.255Z,3.90
2023-01-08T09:24:58.860Z,4.00
2023-01-08T09:27:25.514Z,4.10
2023-01-08T09:29:52.269Z,4.20
2023-01-08T09:32:19.252Z,4.40
2023-01-08T09:34:46.092Z,4.60
2023-01-08T09:37:12.993Z,4.70
2023-01-08T09:39:42.360Z,4.70
2023-01-08T09:42:11.910Z,4.70
2023-01-08T09:44:40.490Z,4.70
2023-01-08T09:47:17.793Z,4.80
2023-01-08T09:49:45.910Z,4.90
2023-01-08T09:52:13.761Z,5.00
2023-01-08T09:54:41.201Z,5.10
2023-01-08T09:57:17.391Z,5.20
2023-01-08T09:59:45.045Z,5.30
2023-01-08T10:02:14.838Z,5.20
2023-01-08T10:04:42.806Z,5.20
2023-01-08T10:07:18.436Z,5.10
2023-01-08T10:09:45.955Z,5.10
2023-01-08T10:12:13.885Z,5.20
2023-01-08T10:15:59.836Z,5.20
2023-01-08T10:18:27.993Z,5.30
2023-01-08T10:20:54.793Z,5.40
2023-01-08T10:23:23.052Z,5.70
2023-01-08T10:25:52.549Z,5.90
2023-01-08T10:28:20.725Z,6.00
2023-01-08T10:30:47.443Z,6.20
2023-01-08T10:33:34.293Z,6.30
2023-01-08T10:36:02.783Z,6.40
2023-01-08T10:38:34.151Z,6.50
2023-01-08T10:41:03.272Z,6.70
2023-01-08T10:43:32.251Z,6.60
2023-01-08T10:46:00.438Z,6.80
2023-01-08T10:48:30.832Z,6.90
2023-01-08T10:51:07.775Z,6.80
2023-01-08T10:53:34.651Z,6.90
2023-01-08T10:56:02.579Z,6.90
2023-01-08T10:58:29.817Z,7.00
2023-01-08T11:01:08.486Z,6.90
2023-01-08T11:03:35.217Z,6.90
2023-01-08T11:06:10.031Z,6.90
2023-01-08T11:08:36.796Z,6.90
2023-01-08T11:11:03.441Z,6.80
2023-01-08T11:13:30.132Z,6.80
2023-01-08T11:16:03.066Z,6.60
2023-01-08T11:18:37.221Z,6.60
2023-01-08T11:21:19.010Z,6.60
2023-01-08T11:23:46.266Z,6.60
2023-01-08T11:26:15.694Z,6.50
2023-01-08T11:28:43.230Z,6.50
2023-01-08T11:31:16.696Z,6.60
2023-01-08T11:33:44.899Z,6.70
2023-01-08T11:36:19.847Z,6.90
2023-01-08T11:38:46.906Z,7.00
2023-01-08T11:41:14.242Z,7.00
2023-01-08T11:44:00.450Z,7.00
2023-01-08T11:46:32.287Z,7.10
2023-01-08T11:49:01.614Z,7.20
2023-01-08T11:51:37.664Z,7.30
2023-01-08T11:54:26.721Z,7.30
2023-01-08T11:57:06.366Z,7.50
2023-01-08T11:59:44.778Z,7.50
2023-01-08T12:02:24.551Z,7.60
2023-01-08T12:05:04.275Z,7.70
2023-01-08T12:07:42.882Z,7.80
2023-01-08T12:10:29.079Z,7.80
2023-01-08T12:13:08.725Z,7.90
2023-01-08T12:15:39.728Z,7.90
2023-01-08T12:18:07.279Z,7.80
2023-01-08T12:20:37.893Z,7.70
2023-01-08T12:23:23.545Z,7.60
2023-01-08T12:25:58.854Z,7.70
2023-01-08T12:28:41.393Z,7.60
2023-01-08T12:31:08.542Z,7.50
2023-01-08T12:33:37.692Z,7.50
2023-01-08T12:36:14.473Z,7.50
2023-01-08T12:38:52.928Z,7.50
2023-01-08T12:41:19.908Z,7.50
2023-01-08T12:43:58.540Z,7.50
2023-01-08T12:46:27.022Z,7.50
2023-01-08T12:48:55.801Z,7.50
2023-01-08T12:51:48.581Z,7.60
2023-01-08T12:54:24.571Z,7.50
2023-01-08T12:56:54.546Z,7.60
2023-01-08T12:59:21.737Z,7.60
2023-01-08T13:02:10.714Z,7.60
2023-01-08T13:04:44.468Z,7.50
2023-01-08T13:07:21.739Z,7.50
2023-01-08T13:10:01.760Z,7.50
2023-01-08T13:12:39.271Z,7.50
2023-01-08T13:15:08.077Z,7.50
2023-01-08T13:17:35.844Z,7.50
2023-01-08T13:20:04.446Z,7.50
2023-01-08T13:22:33.134Z,7.50
2023-01-08T13:25:08.711Z,7.50
2023-01-08T13:27:39.458Z,7.50
2023-01-08T13:30:26.205Z,7.50
2023-01-08T13:32:55.711Z,7.50
2023-01-08T13:35:26.966Z,7.50
2023-01-08T13:38:12.538Z,7.40
2023-01-08T13:40:53.489Z,7.40
2023-01-08T13:43:38.827Z,7.40
2023-01-08T13:46:15.250Z,7.40
2023-01-08T13:49:00.697Z,7.30
2023-01-08T13:51:44.523Z,7.30
2023-01-08T13:54:17.432Z,7.30
2023-01-08T13:56:45.729Z,7.30
2023-01-08T13:59:31.268Z,7.20
2023-01-08T14:02:00.482Z,7.30
2023-01-08T14:04:27.402Z,7.20
2023-01-08T14:07:05.291Z,7.20
2023-01-08T14:09:34.628Z,7.20
2023-01-08T14:12:04.021Z,7.20
2023-01-08T14:14:33.252Z,7.20
2023-01-08T14:17:00.150Z,7.20
2023-01-08T14:19:27.624Z,7.20
2023-01-08T14:22:03.507Z,7.20
2023-01-08T14:24:30.121Z,7.10
2023-01-08T14:26:57.720Z,7.30
2023-01-08T14:29:30.199Z,7.30
2023-01-08T14:31:58.015Z,7.30
2023-01-08T14:34:30.371Z,7.30
2023-01-08T14:37:16.045Z,7.40
2023-01-08T14:39:48.389Z,7.40
2023-01-08T14:42:51.544Z,7.40
2023-01-08T14:45:23.230Z,7.30
2023-01-08T14:47:54.018Z,7.30
2023-01-08T14:50:21.921Z,7.30
2023-01-08T14:52:53.351Z,7.30
2023-01-08T14:55:21.426Z,7.30
2023-01-08T14:57:59.037Z,7.30
2023-01-08T15:00:31.518Z,7.30
2023-01-08T15:03:02.168Z,7.20
2023-01-08T15:05:33.569Z,7.30
2023-01-08T15:08:03.382Z,7.20
2023-01-08T15:10:40.872Z,7.10
2023-01-08T15:13:21.679Z,7.20
2023-01-08T15:16:00.089Z,7.20
2023-01-08T15:18:27.624Z,7.10
2023-01-08T15:20:55.078Z,7.30
2023-01-08T15:23:30.043Z,7.10
2023-01-08T15:26:05.172Z,7.00
2023-01-08T15:28:38.536Z,7.10
2023-01-08T15:31:37.371Z,7.00
2023-01-08T15:34:14.073Z,7.00
2023-01-08T15:36:48.880Z,6.80
2023-01-08T15:39:22.171Z,6.80
2023-01-08T15:42:31.499Z,6.70
2023-01-08T15:44:59.739Z,6.80
2023-01-08T15:47:31.883Z,6.50
2023-01-08T15:50:03.497Z,6.60
2023-01-08T15:52:33.156Z,6.80
2023-01-08T15:55:05.997Z,6.70
2023-01-08T15:57:40.533Z,6.70
2023-01-08T16:00:13.507Z,6.90
2023-01-08T16:02:53.574Z,6.90
2023-01-08T16:05:30.997Z,6.90
2023-01-08T16:08:02.390Z,6.60
2023-01-08T16:10:35.550Z,6.40
2023-01-08T16:13:03.973Z,6.30
2023-01-08T16:15:32.550Z,6.00
2023-01-08T16:18:00.726Z,5.90
2023-01-08T16:20:39.033Z,5.80
2023-01-08T16:23:12.439Z,5.80
2023-01-08T16:25:40.709Z,5.70
2023-01-08T16:28:09.591Z,5.60
2023-01-08T16:30:42.448Z,5.60
2023-01-08T16:33:15.444Z,5.60
2023-01-08T16:36:11.225Z,5.70
2023-01-08T16:38:53.188Z,5.60
2023-01-08T16:41:33.116Z,5.20
2023-01-08T16:44:03.496Z,5.30
2023-01-08T16:46:30.937Z,5.10
2023-01-08T16:49:03.593Z,5.10
2023-01-08T16:51:34.025Z,5.30
2023-01-08T16:54:01.924Z,5.20
2023-01-08T16:56:35.193Z,5.30
2023-01-08T16:59:03.897Z,5.00
2023-01-08T17:01:32.215Z,5.00
2023-01-08T17:04:00.469Z,4.90
2023-01-08T17:06:27.733Z,4.70
2023-01-08T17:08:54.759Z,4.70
2023-01-08T17:11:22.113Z,4.80
2023-01-08T17:13:49.080Z,4.80
2023-01-08T17:16:17.247Z,4.40
2023-01-08T17:18:44.278Z,4.30
2023-01-08T17:21:11.833Z,4.40
2023-01-08T17:23:39.005Z,4.70
2023-01-08T17:26:07.173Z,4.70
2023-01-08T17:28:35.018Z,4.50
2023-01-08T17:31:05.802Z,4.20
2023-01-08T17:33:34.911Z,4.10
2023-01-08T17:36:02.051Z,4.00
2023-01-08T17:38:28.747Z,4.00
2023-01-08T17:40:59.727Z,4.20
2023-01-08T17:43:26.305Z,4.10
2023-01-08T17:45:54.013Z,4.30
2023-01-08T17:48:21.773Z,4.40
2023-01-08T17:50:48.420Z,4.20
2023-01-08T17:53:15.051Z,4.00
2023-01-08T17:55:41.632Z,3.90
2023-01-08T17:58:08.240Z,3.80
2023-01-08T18:00:34.851Z,3.90
2023-01-08T18:03:01.455Z,4.00
2023-01-08T18:05:28.081Z,4.10
2023-01-08T18:07:54.700Z,4.20
2023-01-08T18:10:21.367Z,4.10
2023-01-08T18:12:48.042Z,4.20
2023-01-08T18:15:16.623Z,4.20
2023-01-08T18:17:43.456Z,4.00
2023-01-08T18:20:10.314Z,4.00
2023-01-08T18:22:36.913Z,4.00
2023-01-08T18:25:03.544Z,4.00
2023-01-08T18:27:31.289Z,3.80
2023-01-08T18:30:01.538Z,3.80
2023-01-08T18:32:28.550Z,3.90
2023-01-08T18:34:55.508Z,3.80
2023-01-08T18:37:23.362Z,3.80
2023-01-08T18:39:50.515Z,3.80
2023-01-08T18:42:26.876Z,3.90
2023-01-08T18:44:56.905Z,4.10
2023-01-08T18:47:24.965Z,3.80
2023-01-08T18:49:59.110Z,3.70
2023-01-08T18:52:26.228Z,4.00
2023-01-08T18:54:56.240Z,4.10
2023-01-08T18:57:28.644Z,4.10
2023-01-08T18:59:56.191Z,4.20
2023-01-08T19:02:24.509Z,4.00
2023-01-08T19:04:51.513Z,4.00
2023-01-08T19:07:19.696Z,4.20
2023-01-08T19:09:50.102Z,4.10
2023-01-08T19:12:17.166Z,4.10
2023-01-08T19:14:46.344Z,4.00
2023-01-08T19:17:19.953Z,4.10
2023-01-08T19:19:47.407Z,4.10
2023-01-08T19:22:14.355Z,4.10
2023-01-08T19:24:41.641Z,4.10
2023-01-08T19:27:08.654Z,4.00
2023-01-08T19:29:41.136Z,3.90
2023-01-08T19:32:09.428Z,3.80
2023-01-08T19:34:36.864Z,3.70
2023-01-08T19:37:04.048Z,3.70
2023-01-08T19:39:30.833Z,4.00
2023-01-08T19:42:17.037Z,4.10
2023-01-08T19:44:43.792Z,4.10
2023-01-08T19:47:11.290Z,4.20
2023-01-08T19:49:38.512Z,4.20
2023-01-08T19:52:05.662Z,4.30
2023-01-08T19:54:32.371Z,4.20
2023-01-08T19:56:59.013Z,4.50
2023-01-08T19:59:25.655Z,4.60
2023-01-08T20:01:52.404Z,4.30
2023-01-08T20:04:19.232Z,4.20
2023-01-08T20:06:45.945Z,4.10
2023-01-08T20:09:12.891Z,4.40
2023-01-08T20:11:39.520Z,4.10
2023-01-08T20:14:06.445Z,3.90
2023-01-08T20:16:33.265Z,4.00
2023-01-08T20:19:04.718Z,4.00
2023-01-08T20:21:33.544Z,4.00
2023-01-08T20:24:05.200Z,4.00
2023-01-08T20:26:36.217Z,3.90
2023-01-08T20:29:04.320Z,3.90
2023-01-08T20:31:38.787Z,3.90
2023-01-08T20:34:08.328Z,3.90
2023-01-08T20:36:36.593Z,4.00
2023-01-08T20:39:06.819Z,4.00
2023-01-08T20:41:39.526Z,4.10
2023-01-08T20:44:07.380Z,4.00
2023-01-08T20:46:35.968Z,3.80
2023-01-08T20:49:13.665Z,4.00
2023-01-08T20:51:57.856Z,4.10
2023-01-08T20:54:32.020Z,4.10
2023-01-08T20:57:00.437Z,4.00
2023-01-08T20:59:29.882Z,4.10
2023-01-08T21:01:58.203Z,4.10
2023-01-08T21:04:26.191Z,4.20
2023-01-08T21:06:53.258Z,4.20
2023-01-08T21:09:20.005Z,4.20
2023-01-08T21:11:46.797Z,4.20
2023-01-08T21:14:13.481Z,4.30
2023-01-08T21:16:40.539Z,4.30
2023-01-08T21:19:09.986Z,4.30
2023-01-08T21:21:40.043Z,4.30
2023-01-08T21:24:09.104Z,4.10
2023-01-08T21:26:36.800Z,3.90
2023-01-08T21:29:04.142Z,3.90
2023-01-08T21:31:30.797Z,4.00
2023-01-08T21:33:58.147Z,4.20
2023-01-08T21:36:26.018Z,4.40
2023-01-08T21:38:53.189Z,4.40
2023-01-08T21:41:39.508Z,4.30
2023-01-08T21:44:29.199Z,4.50
2023-01-08T21:46:57.316Z,4.40
2023-01-08T21:49:24.014Z,4.40
2023-01-08T21:52:09.823Z,4.40
2023-01-08T21:54:39.203Z,4.30
2023-01-08T21:57:06.480Z,4.40
2023-01-08T21:59:33.359Z,4.40
2023-01-08T22:02:00.400Z,4.30
2023-01-08T22:04:27.127Z,4.20
2023-01-08T22:06:53.780Z,4.20
2023-01-08T22:09:20.595Z,4.30
2023-01-08T22:11:47.214Z,4.20
2023-01-08T22:14:13.822Z,4.20
2023-01-08T22:16:40.478Z,4.20
2023-01-08T22:19:07.174Z,4.20
2023-01-08T22:21:33.791Z,4.20
2023-01-08T22:24:00.556Z,4.30
2023-01-08T22:26:27.275Z,4.30
2023-01-08T22:28:53.867Z,4.40
2023-01-08T22:31:20.518Z,4.40
2023-01-08T22:33:47.124Z,4.40
2023-01-08T22:36:14.613Z,4.40
2023-01-08T22:38:41.368Z,4.30
2023-01-08T22:41:15.877Z,4.40
2023-01-08T22:43:42.626Z,4.40
2023-01-08T22:46:11.553Z,4.20
2023-01-08T22:48:38.243Z,4.10
2023-01-08T22:51:05.124Z,4.20
2023-01-08T22:53:31.705Z,4.40
2023-01-08T22:55:58.619Z,4.20
2023-01-08T22:58:25.201Z,4.30
2023-01-08T23:00:51.790Z,4.40
2023-01-08T23:03:18.385Z,4.50
2023-01-08T23:05:44.986Z,4.40
2023-01-08T23:08:11.678Z,4.40
2023-01-08T23:10:38.439Z,4.30
2023-01-08T23:13:05.065Z,4.30
2023-01-08T23:15:31.660Z,4.20
2023-01-08T23:18:01.525Z,4.20
2023-01-08T23:20:28.168Z,4.30
2023-01-08T23:22:54.819Z,4.40
2023-01-08T23:25:21.463Z,4.30
2023-01-08T23:27:48.065Z,4.40
2023-01-08T23:30:14.659Z,4.50
2023-01-08T23:32:41.309Z,4.40
2023-01-08T23:35:08.191Z,4.50
2023-01-08T23:37:34.856Z,4.40
2023-01-08T23:40:01.479Z,4.40
2023-01-08T23:42:28.774Z,4.40
2023-01-08T23:44:55.503Z,4.30
2023-01-08T23:47:22.217Z,4.10
2023-01-08T23:49:48.848Z,4.00
2023-01-08T23:52:15.466Z,3.90
2023-01-08T23:54:42.131Z,4.10
2023-01-08T23:57:08.724Z,4.10
2023-01-08T23:59:35.377Z,3.90
